Date,TemperatureHighF,TemperatureAvgF,TemperatureLowF,DewpointHighF,DewpointAvgF,DewpointLowF,HumidityHigh,HumidityAvg,HumidityLow,PressureMaxIn,PressureMinIn,WindSpeedMaxMPH,WindSpeedAvgMPH,GustSpeedMaxMPH,PrecipitationSumIn
2012-1-11,58.0,57.6,57.0,50.0,50.0,49.0,76,76,75,29.74,29.73,5,5,0,0.00
2012-1-12,63.0,56.1,49.0,57.0,50.2,44.0,91,81,68,29.87,29.71,12,5,0,0.00
2012-1-13,62.0,46.1,38.0,56.0,28.7,23.0,82,51,36,30.17,29.75,10,6,0,0.00
2012-1-14,53.0,43.9,36.0,33.0,25.5,21.0,63,49,29,30.32,30.17,7,4,0,0.00
2012-1-15,55.0,47.6,41.0,36.0,32.1,30.0,82,55,39,30.55,30.22,9,4,0,0.00
2012-1-16,56.0,50.6,41.0,50.0,41.4,36.0,90,72,56,30.61,30.40,7,3,0,0.00
2012-1-17,66.0,57.9,51.0,56.0,53.4,48.0,92,85,70,30.40,30.08,6,2,0,0.00
2012-1-18,65.0,56.9,45.0,58.0,53.1,40.0,95,87,71,30.08,29.96,6,3,0,0.00
2012-1-19,54.0,47.2,38.0,47.0,42.1,34.0,92,83,75,30.25,30.06,7,3,0,0.00
2012-1-20,63.0,55.2,48.0,56.0,50.8,46.0,96,86,61,30.23,30.14,4,1,0,0.00
2012-1-21,64.0,60.1,57.0,58.0,56.6,55.0,95,88,79,30.14,29.99,8,4,0,0.00
2012-1-22,57.0,51.0,47.0,56.0,49.3,45.0,97,94,90,30.32,30.07,10,4,0,0.00
2012-1-23,61.0,53.5,46.0,59.0,52.4,45.0,98,96,94,30.28,30.08,8,3,0,0.00
2012-1-24,68.0,60.7,55.0,63.0,58.6,54.0,98,94,82,30.24,30.09,3,1,0,0.00
2012-1-25,65.0,56.0,48.0,57.0,52.6,47.0,97,89,75,30.32,30.20,6,2,0,0.00
2012-1-26,68.0,61.3,57.0,63.0,59.4,56.0,97,93,85,30.20,29.91,7,3,0,0.00
2012-1-27,68.0,62.0,54.0,62.0,55.3,48.0,97,80,52,30.08,29.77,9,4,0,0.00
2012-1-28,67.0,56.1,48.0,49.0,45.0,38.0,87,68,38,30.21,30.07,4,1,0,0.00
2012-1-29,57.0,50.2,45.0,45.0,36.8,26.0,80,61,33,30.41,30.21,10,4,0,0.00
2012-1-30,62.0,51.0,42.0,45.0,34.0,25.0,78,54,26,30.51,30.38,6,2,0,0.00
2012-1-31,65.0,53.3,43.0,52.0,46.0,36.0,96,79,36,30.49,30.36,5,1,0,0.00
2012-2-1,69.0,59.9,49.0,58.0,54.5,48.0,96,83,65,30.37,30.17,3,1,0,0.00
2012-2-2,74.0,64.8,58.0,60.0,56.0,49.0,93,75,47,30.27,30.09,6,2,0,0.00
2012-2-3,59.0,55.7,52.0,51.0,46.2,38.0,83,71,57,30.46,30.27,10,6,0,0.00
2012-2-4,69.0,60.5,55.0,60.0,56.2,51.0,93,86,71,30.38,30.11,4,1,0,0.00
2012-2-5,74.0,63.5,54.0,63.0,58.9,51.0,95,85,63,30.15,29.97,10,3,0,0.00
2012-2-6,56.0,52.0,49.0,51.0,47.2,43.0,90,84,76,30.25,30.15,9,5,0,0.00
2012-2-7,56.0,51.4,49.0,49.0,46.1,43.0,89,82,71,30.20,30.15,8,2,0,0.00
2012-2-8,66.0,52.9,45.0,51.0,42.3,38.0,91,70,36,30.19,30.08,5,1,0,0.00
2012-2-9,53.0,47.9,43.0,41.0,38.7,36.0,83,71,56,30.33,30.17,8,4,0,0.00
2012-2-10,59.0,54.3,48.0,57.0,49.5,42.0,94,84,65,30.25,29.93,5,2,0,0.00
2012-2-11,58.0,50.7,34.0,51.0,36.1,14.0,92,59,34,30.18,29.80,12,5,0,0.00
2012-2-12,47.0,36.9,28.0,24.0,14.5,10.0,53,41,25,30.35,30.16,11,5,0,0.00
2012-2-13,53.0,43.8,32.0,38.0,27.5,20.0,68,53,37,30.35,30.18,6,1,0,0.00
2012-2-14,58.0,52.0,46.0,53.0,45.8,39.0,93,80,59,30.21,30.09,5,0,0,0.00
2012-2-15,63.0,56.1,52.0,55.0,53.0,50.0,95,89,76,30.27,30.12,7,2,0,0.00
2012-2-16,66.0,59.9,53.0,62.0,57.7,51.0,95,92,86,30.26,30.03,6,2,0,0.00
2012-2-17,61.0,57.9,53.0,60.0,54.4,50.0,96,88,74,30.14,30.02,7,2,0,0.00
2012-2-18,66.0,56.8,50.0,57.0,51.2,47.0,97,83,59,30.11,29.90,8,3,0,0.00
2012-2-19,65.0,58.3,46.0,64.0,56.7,42.0,98,95,81,29.94,29.59,9,5,0,0.00
2012-2-20,54.0,46.2,40.0,43.0,38.2,36.0,89,74,50,30.35,29.88,12,5,0,0.00
2012-2-21,60.0,51.7,43.0,56.0,47.5,38.0,94,86,79,30.35,30.11,7,3,0,0.00
2012-2-22,70.0,59.5,53.0,59.0,55.4,52.0,97,87,61,30.12,29.76,8,2,0,0.00
2012-2-23,72.0,64.1,60.0,66.0,61.3,59.0,98,91,78,29.83,29.74,8,5,0,0.00
2012-2-24,66.0,65.0,64.0,63.0,62.5,62.0,93,92,89,29.79,29.78,9,7,0,0.00
2012-2-25,58.0,53.8,49.0,34.0,26.9,21.0,56,37,24,30.33,30.17,4,2,0,0.00
2012-2-26,54.0,48.4,41.0,47.0,37.9,29.0,80,67,53,30.52,30.33,9,5,0,0.00
2012-2-27,63.0,59.9,53.0,62.0,57.8,47.0,97,93,77,30.43,30.33,6,2,0,0.00
2012-2-28,65.0,58.2,54.0,56.0,53.0,46.0,98,85,50,30.40,30.31,9,5,0,0.00
2012-2-29,72.0,63.9,57.0,66.0,61.0,55.0,97,90,80,30.32,30.02,8,3,0,0.00
2012-3-1,68.0,63.4,61.0,64.0,61.9,60.0,96,94,87,30.04,29.91,6,3,0,0.00
2012-3-2,72.0,64.6,61.0,66.0,62.2,60.0,96,92,78,30.01,29.85,5,3,0,0.00
2012-3-3,67.0,62.0,58.0,65.0,60.3,57.0,98,95,90,29.85,29.74,8,3,0,0.00
2012-3-4,59.0,53.4,47.0,57.0,41.5,25.0,98,70,31,30.19,29.65,10,5,0,0.00
2012-3-5,68.0,57.2,47.0,44.0,34.9,24.0,67,45,23,30.50,30.16,12,6,0,0.00
2012-3-6,55.0,49.0,43.0,48.0,38.1,28.0,90,66,48,30.67,30.50,10,6,0,0.00
2012-3-7,67.0,58.2,49.0,59.0,53.0,46.0,93,84,67,30.61,30.45,7,4,0,0.00
2012-3-8,70.0,63.5,60.0,62.0,59.5,56.0,95,87,76,30.45,30.21,6,3,0,0.00
2012-3-9,73.0,64.8,59.0,66.0,60.6,48.0,97,86,66,30.27,30.12,8,2,0,0.00
2012-3-10,61.0,54.9,48.0,50.0,45.8,38.0,93,72,44,30.47,30.27,10,6,0,0.00
2012-3-11,63.0,58.3,55.0,54.0,49.5,-99.9,88,76,64,30.54,30.45,10,6,0,0.00
2012-3-12,69.0,61.4,53.0,58.0,55.4,52.0,97,82,60,30.47,30.32,10,3,0,0.00
2012-3-13,75.0,64.0,59.0,63.0,59.0,56.0,94,84,65,30.33,30.22,3,1,0,0.00
2012-3-14,76.0,66.0,60.0,65.0,61.4,58.0,95,86,68,30.28,30.20,3,1,0,0.00
2012-3-15,74.0,66.6,60.0,66.0,62.8,59.0,97,88,73,30.33,30.23,5,1,0,0.00
2012-3-16,76.0,68.0,63.0,66.0,63.6,60.0,97,86,69,30.29,30.17,4,2,0,0.00
2012-3-17,76.0,68.4,62.0,66.0,62.7,59.0,93,82,70,30.27,30.17,4,1,0,0.00
2012-3-18,77.0,66.9,63.0,66.0,62.9,60.0,95,87,69,30.32,30.20,4,1,0,0.00
2012-3-19,77.0,67.4,61.0,67.0,64.0,60.0,98,90,71,30.25,30.15,7,1,0,0.00
2012-3-20,73.0,66.6,62.0,67.0,63.4,-99.9,99,92,77,30.24,30.14,11,3,0,0.00
2012-3-21,75.0,68.4,65.0,67.0,65.1,64.0,97,89,70,30.29,30.20,9,2,0,0.00
2012-3-22,75.0,68.5,66.0,68.0,65.7,64.0,96,90,75,30.27,30.18,8,2,0,0.00
2012-3-23,78.0,70.1,64.0,70.0,66.6,63.0,98,89,74,30.18,30.02,5,2,0,0.00
2012-3-24,77.0,68.4,62.0,70.0,65.5,60.0,96,91,79,30.07,29.81,7,2,0,0.00
2012-3-25,72.0,63.4,57.0,65.0,55.9,51.0,92,78,52,29.83,29.72,8,3,0,0.00
2012-3-26,79.0,66.1,57.0,64.0,57.1,50.0,93,75,38,30.02,29.82,7,3,0,0.00
2012-3-27,65.0,61.2,58.0,63.0,50.7,39.0,94,69,41,30.32,30.02,11,7,0,0.00
2012-3-28,76.0,68.5,62.0,67.0,61.4,51.0,89,79,67,30.31,30.03,7,4,0,0.00
2012-3-29,84.0,71.3,64.0,67.0,62.9,58.0,93,77,42,30.04,29.89,6,3,0,0.00
2012-3-30,79.0,70.2,64.0,67.0,63.8,59.0,92,81,64,30.03,29.93,5,2,0,0.00
2012-3-31,77.0,69.9,66.0,68.0,66.3,65.0,96,88,68,29.96,29.78,7,3,0,0.00
2012-4-1,71.0,66.6,63.0,66.0,62.7,60.0,96,88,76,29.91,29.78,10,3,0,0.00
2012-4-2,90.0,75.0,67.0,69.0,65.2,63.0,94,74,42,29.92,29.75,11,4,0,0.00
2012-4-3,73.0,70.1,68.0,69.0,64.7,58.0,94,83,68,30.02,29.91,9,5,0,0.00
2012-4-4,79.0,72.5,65.0,70.0,67.2,62.0,96,84,70,29.93,29.71,7,2,0,0.00
2012-4-5,81.0,72.4,65.0,70.0,66.3,63.0,94,82,64,29.75,29.63,8,2,0,0.00
2012-4-6,67.0,56.2,50.0,65.0,51.5,45.0,96,85,60,30.09,29.69,10,5,0,0.00
2012-4-7,68.0,58.7,48.0,50.0,42.9,31.0,90,60,29,30.27,30.09,7,2,0,0.00
2012-4-8,76.0,65.3,57.0,60.0,54.3,49.0,83,68,48,30.23,30.04,6,3,0,0.00
2012-4-9,72.0,66.8,60.0,62.0,53.2,44.0,84,64,37,30.11,29.98,6,3,0,0.00
2012-4-10,79.0,67.9,60.0,62.0,54.1,41.0,88,64,29,30.07,29.91,5,2,0,0.00
2012-4-11,71.0,64.4,56.0,57.0,42.5,31.0,74,48,24,30.08,29.91,7,3,0,0.00
2012-4-12,61.0,54.5,45.0,45.0,36.7,31.0,64,51,37,30.25,30.07,10,4,0,0.00
2012-4-13,68.0,61.7,52.0,50.0,44.5,40.0,88,54,40,30.30,30.18,9,3,0,0.00
2012-4-14,75.0,67.3,59.0,65.0,56.7,47.0,83,69,53,30.36,30.27,10,3,0,0.00
2012-4-15,79.0,70.5,66.0,67.0,62.6,-99.9,90,79,61,30.31,30.23,2,0,0,0.00
2012-4-16,80.0,71.8,67.0,68.0,64.0,59.0,91,78,52,30.28,30.19,5,1,0,0.00
2012-4-17,80.0,72.3,66.0,70.0,66.4,64.0,94,82,64,30.23,30.10,3,1,0,0.00
2012-4-18,79.0,72.3,67.0,69.0,66.8,64.0,93,83,69,30.13,30.00,7,1,0,0.00
2012-4-19,72.0,66.0,64.0,67.0,64.4,62.0,97,94,84,30.06,29.98,7,2,0,0.00
2012-4-20,72.0,66.7,61.0,66.0,63.7,60.0,96,90,79,30.00,29.87,9,4,0,0.00
2012-4-21,78.0,70.4,66.0,72.0,67.7,65.0,98,91,81,29.89,29.68,8,2,0,0.00
2012-4-22,69.0,65.9,58.0,67.0,62.4,-99.9,97,92,86,29.68,29.43,8,3,0,0.00
2012-4-23,63.0,57.0,51.0,54.0,44.2,38.0,89,64,43,29.82,29.61,6,3,0,0.00
2012-4-24,69.0,59.0,48.0,44.0,39.7,30.0,70,51,29,29.92,29.82,8,3,0,0.00
2012-4-25,76.0,66.3,57.0,63.0,53.9,45.0,82,65,48,30.03,29.92,5,3,0,0.00
2012-4-26,78.0,70.8,65.0,66.0,62.7,57.0,86,76,59,30.01,29.92,7,5,0,0.00
2012-4-27,79.0,72.9,67.0,68.0,65.3,62.0,87,78,64,30.07,29.96,6,3,0,0.00
2012-4-28,81.0,74.0,69.0,71.0,68.5,66.0,94,83,71,30.12,30.04,5,2,0,0.00
2012-4-29,82.0,73.7,67.0,72.0,68.2,-99.9,96,85,70,30.17,30.10,2,1,0,0.00
2012-4-30,76.0,72.8,69.0,72.0,70.0,68.0,97,91,83,30.24,30.14,9,4,0,0.00
2012-5-1,83.0,76.0,71.0,71.0,69.6,68.0,94,81,66,30.22,30.12,4,1,0,0.00
2012-5-2,84.0,76.1,71.0,72.0,69.4,67.0,91,80,65,30.20,30.09,4,1,0,0.00
2012-5-3,84.0,75.9,71.0,72.0,69.4,68.0,91,81,62,30.18,30.10,3,1,0,0.00
2012-5-4,81.0,74.3,69.0,73.0,70.0,67.0,95,87,72,30.13,29.99,3,1,0,0.00
2012-5-5,91.0,79.5,73.0,74.0,71.4,69.0,94,78,50,30.01,29.82,7,3,0,0.00
2012-5-6,81.0,73.7,69.0,72.0,67.5,-99.9,92,83,67,29.98,29.83,7,3,0,0.00
2012-5-7,76.0,72.7,70.0,69.0,67.4,66.0,88,84,78,30.03,29.94,12,6,0,0.00
2012-5-8,77.0,73.9,71.0,70.0,66.6,64.0,86,78,69,29.99,29.89,8,6,0,0.00
2012-5-9,83.0,73.6,66.0,74.0,69.7,64.0,96,88,71,29.91,29.69,4,1,0,0.00
2012-5-10,79.0,69.8,62.0,66.0,58.9,49.0,96,72,38,29.95,29.72,10,2,0,0.00
2012-5-11,75.0,70.6,63.0,63.0,59.7,57.0,90,69,57,30.23,29.96,10,4,0,0.00
2012-5-12,76.0,73.1,71.0,66.0,58.4,54.0,82,61,46,30.35,30.22,10,6,0,0.00
2012-5-13,76.0,71.9,66.0,68.0,64.0,-99.9,94,78,67,30.26,30.12,8,5,0,0.00
2012-5-14,84.0,76.1,72.0,73.0,68.9,63.0,88,78,67,30.13,29.96,6,2,0,0.00
2012-5-15,84.0,77.1,73.0,74.0,71.4,68.0,93,83,69,30.02,29.92,4,1,0,0.00
2012-5-16,84.0,76.9,73.0,74.0,72.2,71.0,95,86,70,29.99,29.90,3,1,0,0.00
2012-5-17,79.0,71.0,65.0,71.0,66.7,63.0,96,86,68,29.97,29.89,6,2,0,0.00
2012-5-18,74.0,68.6,66.0,66.0,63.4,56.0,96,84,70,30.03,29.91,7,5,0,0.00
2012-5-19,71.0,66.6,61.0,56.0,51.0,45.0,72,58,40,30.07,30.00,10,6,0,0.00
2012-5-20,75.0,67.8,59.0,67.0,58.7,-99.9,91,75,61,30.07,29.97,10,6,0,0.00
2012-5-21,78.0,71.4,66.0,69.0,67.1,65.0,96,87,71,30.01,29.91,10,3,0,0.00
2012-5-22,83.0,75.8,69.0,74.0,70.6,64.0,95,84,73,29.93,29.82,3,1,0,0.00
2012-5-23,84.0,76.8,69.0,73.0,69.7,64.0,92,79,67,29.93,29.83,6,2,0,0.00
2012-5-24,85.0,77.0,73.0,76.0,73.1,71.0,95,88,74,30.01,29.92,9,2,0,0.00
2012-5-25,82.0,76.3,71.0,74.0,71.5,70.0,97,85,70,30.08,29.98,9,4,0,0.00
2012-5-26,85.0,77.6,71.0,72.0,69.8,67.0,93,78,57,30.08,29.99,11,4,0,0.00
2012-5-27,82.0,77.5,73.0,75.0,71.1,-99.9,90,84,78,30.01,29.95,13,9,0,0.00
2012-5-28,82.0,78.3,74.0,76.0,73.8,70.0,91,86,81,30.03,29.96,11,9,0,0.00
2012-5-29,81.0,77.3,73.0,75.0,73.0,70.0,93,87,77,29.99,29.74,15,7,0,0.00
2012-5-30,88.0,77.8,71.0,74.0,70.8,66.0,97,81,54,29.87,29.54,16,4,0,0.00
2012-5-31,86.0,78.7,72.0,74.0,71.1,64.0,89,78,66,29.91,29.85,7,2,0,0.00
2012-6-1,84.0,78.7,73.0,76.0,73.5,69.0,93,85,73,29.91,29.79,5,2,0,0.00
2012-6-2,85.0,78.5,73.0,75.0,65.6,55.0,94,67,40,29.93,29.78,4,2,0,0.00
2012-6-3,87.0,75.7,65.0,69.0,58.8,-99.9,80,59,37,30.00,29.90,5,1,0,0.00
2012-6-4,80.0,75.9,70.0,73.0,69.9,68.0,95,82,71,29.90,29.72,6,2,0,0.00
2012-6-5,76.0,71.6,67.0,70.0,65.7,62.0,89,82,65,29.88,29.71,9,2,0,0.00
2012-6-6,74.0,70.6,67.0,68.0,66.3,63.0,97,86,72,29.98,29.82,10,6,0,0.00
2012-6-7,77.0,71.8,64.0,67.0,63.3,60.0,92,75,58,30.06,29.98,9,4,0,0.00
2012-6-8,79.0,74.6,67.0,66.0,64.1,62.0,88,70,60,30.07,29.99,9,3,0,0.00
2012-6-9,81.0,75.5,69.0,71.0,67.0,63.0,92,75,64,30.11,30.03,6,2,0,0.00
2012-6-10,83.0,77.7,76.0,75.0,70.2,-99.9,92,81,73,30.17,30.05,8,5,0,0.00
2012-6-11,85.0,76.8,69.0,77.0,72.3,67.0,96,87,73,30.18,30.10,7,2,0,0.00
2012-6-12,82.0,76.9,72.0,76.0,73.4,70.0,93,89,82,30.10,29.90,6,3,0,0.00
2012-6-13,84.0,76.4,72.0,75.0,72.4,69.0,94,88,75,29.96,29.89,6,2,0,0.00
2012-6-14,82.0,75.8,70.0,70.0,67.8,65.0,95,77,57,30.09,29.95,9,4,0,0.00
2012-6-15,80.0,73.6,67.0,70.0,64.8,58.0,88,75,48,30.16,30.06,11,5,0,0.00
2012-6-16,78.0,72.8,66.0,67.0,63.9,59.0,87,74,53,30.21,30.12,9,4,0,0.00
2012-6-17,80.0,73.0,68.0,67.0,62.2,-99.9,90,71,50,30.16,30.04,9,4,0,0.00
2012-6-18,80.0,74.9,67.0,70.0,66.5,63.0,93,76,60,30.13,30.05,8,3,0,0.00
2012-6-19,84.0,77.8,71.0,72.0,70.0,67.0,95,78,65,30.19,30.12,6,2,0,0.00
2012-6-20,82.0,78.3,73.0,73.0,70.4,69.0,92,77,66,30.19,30.11,7,3,0,0.00
2012-6-21,86.0,79.9,73.0,72.0,69.9,68.0,89,72,56,30.11,29.98,4,1,0,0.00
2012-6-22,87.0,79.4,72.0,73.0,69.8,68.0,90,73,56,30.00,29.92,2,1,0,0.00
2012-6-23,88.0,82.0,75.0,78.0,75.3,72.0,94,81,70,30.02,29.91,3,1,0,0.00
2012-6-24,88.0,81.1,77.0,77.0,75.2,73.0,92,83,67,30.02,29.92,5,2,0,0.00
2012-6-25,84.0,78.5,74.0,76.0,73.4,71.0,94,85,75,29.95,29.71,8,2,0,0.00
2012-6-26,76.0,72.1,67.0,75.0,68.4,62.0,97,89,71,29.80,29.70,13,5,0,0.00
2012-6-27,81.0,73.7,66.0,67.0,61.4,57.0,87,67,45,29.99,29.78,10,6,0,0.00
2012-6-28,90.0,78.8,70.0,72.0,68.5,62.0,93,73,44,30.07,29.97,3,1,0,0.00
2012-6-29,92.0,82.8,77.0,79.0,74.7,70.0,90,77,59,29.98,29.80,4,2,0,0.00
2012-6-30,90.0,83.9,79.0,80.0,78.1,76.0,93,84,73,29.92,29.82,2,1,0,0.00
2012-7-1,91.0,83.3,77.0,82.0,77.0,65.0,95,82,56,30.08,29.90,13,2,0,0.00
2012-7-2,90.0,82.4,76.0,79.0,72.6,66.0,88,73,64,30.09,29.97,7,2,0,0.00
2012-7-3,92.0,84.1,78.0,81.0,77.8,75.0,93,82,68,30.03,29.95,1,1,0,0.00
2012-7-4,93.0,83.4,76.0,78.0,75.0,71.0,94,77,51,30.06,29.95,3,1,0,0.00
2012-7-5,91.0,83.8,79.0,81.0,78.0,75.0,93,84,71,30.01,29.91,4,2,0,0.00
2012-7-6,91.0,83.9,79.0,80.0,77.0,71.0,93,80,64,30.02,29.92,5,2,0,0.00
2012-7-7,92.0,84.6,79.0,80.0,77.6,74.0,91,80,61,30.06,29.98,4,2,0,0.00
2012-7-8,91.0,85.2,80.0,81.0,77.8,74.0,89,79,63,30.06,29.92,6,3,0,0.00
2012-7-9,93.0,85.6,82.0,81.0,78.0,75.0,91,79,57,29.99,29.89,6,4,0,0.00
2012-7-10,90.0,83.9,79.0,81.0,76.9,71.0,92,80,70,30.05,29.92,6,2,0,0.00
2012-7-11,92.0,80.1,73.0,79.0,75.2,69.0,95,86,64,30.09,30.00,4,1,0,0.00
2012-7-12,86.0,80.3,71.0,78.0,75.1,69.0,97,85,73,30.13,30.05,9,3,0,0.00
2012-7-13,89.0,83.0,74.0,78.0,75.9,72.0,96,80,69,30.16,30.08,6,4,0,0.00
2012-7-14,86.0,83.0,81.0,78.0,75.0,72.0,83,77,72,30.21,30.12,7,4,0,0.00
2012-7-15,87.0,82.5,79.0,76.0,74.1,71.0,83,76,67,30.20,30.10,8,3,0,0.00
2012-7-16,90.0,84.0,77.0,77.0,75.0,73.0,92,75,62,30.12,29.97,4,1,0,0.00
2012-7-17,90.0,83.0,78.0,78.0,75.6,73.0,92,79,66,30.02,29.94,3,1,0,0.00
2012-7-18,89.0,82.1,78.0,78.0,75.8,74.0,91,82,66,30.06,29.98,5,2,0,0.00
2012-7-19,88.0,82.3,79.0,79.0,75.8,73.0,90,81,72,30.11,30.01,6,4,0,0.00
2012-7-20,89.0,82.7,78.0,80.0,75.7,72.0,89,80,69,30.07,29.99,8,5,0,0.00
2012-7-21,89.0,82.9,78.0,78.0,74.4,71.0,85,76,67,30.13,30.03,6,3,0,0.00
2012-7-22,91.0,84.4,81.0,81.0,77.9,76.0,90,81,70,30.21,30.11,3,1,0,0.00
2012-7-23,91.0,84.2,78.0,80.0,77.0,74.0,91,79,69,30.22,30.10,5,2,0,0.00
2012-7-24,92.0,84.0,74.0,81.0,76.8,72.0,92,79,66,30.10,29.91,8,3,0,0.00
2012-7-25,88.0,81.7,74.0,80.0,76.4,72.0,95,84,71,29.98,29.89,8,2,0,0.00
2012-7-26,92.0,85.7,81.0,82.0,79.8,78.0,94,83,71,29.96,29.89,5,2,0,0.00
2012-7-27,93.0,84.8,80.0,82.0,78.0,73.0,91,80,70,29.98,29.90,7,3,0,0.00
2012-7-28,90.0,83.2,74.0,81.0,77.4,69.0,93,83,73,30.04,29.94,10,3,0,0.00
2012-7-29,92.0,83.2,77.0,82.0,77.6,72.0,93,84,72,30.01,29.91,5,1,0,0.00
2012-7-30,82.0,78.8,75.0,77.0,75.0,73.0,94,88,81,30.00,29.87,8,1,0,0.00
2012-7-31,89.0,79.3,72.0,79.0,74.8,70.0,96,87,72,29.99,29.91,4,1,0,0.00
2012-8-1,89.0,79.9,76.0,79.0,75.8,74.0,95,88,70,29.96,29.86,8,1,0,0.00
2012-8-2,93.0,83.1,78.0,81.0,76.6,69.0,95,81,64,29.98,29.88,6,1,0,0.00
2012-8-3,90.0,82.9,76.0,79.0,75.7,71.0,92,79,69,30.08,29.97,7,2,0,0.00
2012-8-4,86.0,82.1,78.0,79.0,75.9,73.0,87,82,76,30.19,30.07,14,4,0,0.00
2012-8-5,89.0,81.4,75.0,79.0,76.0,73.0,95,84,71,30.21,30.11,8,4,0,0.00
2012-8-6,90.0,83.4,79.0,79.0,76.9,74.0,91,81,69,30.16,30.03,4,1,0,0.00
2012-8-7,88.0,81.9,76.0,79.0,75.9,72.0,94,83,68,30.07,29.99,5,1,0,0.00
2012-8-8,84.0,78.0,74.0,77.0,74.3,72.0,96,89,78,30.05,29.97,3,1,0,0.00
2012-8-9,89.0,80.7,74.0,78.0,75.6,71.0,96,85,70,30.01,29.90,8,1,0,0.00
2012-8-10,87.0,81.1,75.0,78.0,75.7,71.0,96,85,68,29.96,29.88,9,4,0,0.00
2012-8-11,89.0,80.5,73.0,79.0,75.0,70.0,95,84,70,29.99,29.90,5,2,0,0.00
2012-8-12,89.0,81.3,77.0,78.0,76.1,74.0,93,85,68,30.02,29.94,4,2,0,0.00
2012-8-13,90.0,82.7,77.0,77.0,76.0,73.0,96,82,59,30.06,29.97,3,1,0,0.00
2012-8-14,92.0,83.6,76.0,78.0,75.1,70.0,92,77,56,30.02,29.92,3,2,0,0.00
2012-8-15,88.0,82.2,77.0,80.0,76.9,74.0,92,85,70,29.99,29.92,4,2,0,0.00
2012-8-16,88.0,81.0,76.0,78.0,74.9,71.0,91,82,68,30.04,29.96,4,1,0,0.00
2012-8-17,90.0,80.5,74.0,79.0,73.8,70.0,91,81,65,30.02,29.88,7,1,0,0.00
2012-8-18,88.0,81.4,76.0,79.0,76.0,73.0,92,84,68,29.92,29.83,3,1,0,0.00
2012-8-19,86.0,80.3,74.0,79.0,76.0,72.0,94,87,74,29.91,29.86,6,2,0,0.00
2012-8-20,86.0,78.2,74.0,76.0,74.0,72.0,96,88,67,29.98,29.86,5,2,0,0.00
2012-8-21,84.0,77.3,72.0,75.0,72.6,70.0,96,86,73,30.04,29.95,2,0,0,0.00
2012-8-22,86.0,78.2,72.0,75.0,72.8,70.0,95,84,68,30.08,30.01,4,1,0,0.00
2012-8-23,80.0,74.7,71.0,74.0,71.6,69.0,97,90,80,30.11,30.04,5,1,0,0.00
2012-8-24,80.0,73.8,70.0,72.0,69.9,67.0,97,88,71,30.09,30.03,8,3,0,0.00
2012-8-25,86.0,74.9,67.0,71.0,67.2,63.0,94,79,53,30.14,30.07,6,2,0,0.00
2012-8-26,82.0,76.3,69.0,75.0,70.2,66.0,93,82,65,30.16,30.05,9,3,0,0.00
2012-8-27,84.0,79.3,76.0,79.0,76.1,74.0,96,91,82,30.08,30.01,9,4,0,0.00
2012-8-28,81.0,76.9,74.0,78.0,75.1,73.0,97,94,87,30.06,29.96,7,2,0,0.00
2012-8-29,87.0,79.2,72.0,80.0,75.9,71.0,96,90,75,30.07,29.94,5,1,0,0.00
2012-8-30,82.0,76.8,72.0,76.0,73.5,71.0,97,90,78,30.16,29.96,4,1,0,0.00
2012-8-31,87.0,80.0,75.0,77.0,75.2,73.0,97,86,71,30.24,30.14,6,1,0,0.00
2012-9-1,91.0,82.6,77.0,82.0,77.5,75.0,96,85,70,30.19,30.06,2,1,0,0.00
2012-9-2,91.0,83.1,78.0,81.0,77.8,75.0,94,85,69,30.09,29.97,2,1,0,0.00
2012-9-3,89.0,82.6,79.0,80.0,76.2,73.0,92,82,70,30.07,30.00,3,1,0,0.00
2012-9-4,89.0,82.8,79.0,78.0,74.8,72.0,87,77,67,30.03,29.95,3,1,0,0.00
2012-9-5,89.0,83.1,79.0,78.0,76.2,74.0,89,80,68,30.00,29.92,3,1,0,0.00
2012-9-6,90.0,82.5,78.0,78.0,75.9,74.0,92,81,67,30.00,29.91,2,1,0,0.00
2012-9-7,91.0,80.5,73.0,79.0,75.6,71.0,94,86,69,29.97,29.87,4,1,0,0.00
2012-9-8,87.0,81.5,78.0,80.0,76.7,74.0,93,86,74,29.88,29.78,7,3,0,0.00
2012-9-9,83.0,77.6,72.0,75.0,71.9,67.0,93,83,70,29.97,29.78,6,2,0,0.00
2012-9-10,82.0,73.8,65.0,67.0,61.6,55.0,86,68,40,30.14,29.97,7,2,0,0.00
2012-9-11,81.0,73.7,67.0,64.0,59.9,55.0,83,64,44,30.27,30.13,9,4,0,0.00
2012-9-12,79.0,72.6,67.0,67.0,62.5,59.0,85,71,57,30.31,30.23,10,4,0,0.00
2012-9-13,80.0,74.2,69.0,71.0,68.0,65.0,92,82,66,30.27,30.19,9,4,0,0.00
2012-9-14,82.0,75.0,69.0,72.0,69.5,66.0,92,83,70,30.20,30.12,9,3,0,0.00
2012-9-15,83.0,75.6,69.0,73.0,70.0,67.0,94,84,63,30.16,30.09,9,2,0,0.00
2012-9-16,81.0,77.5,72.0,72.0,71.1,68.0,95,81,68,30.13,30.04,6,2,0,0.00
2012-9-17,85.0,78.6,74.0,75.0,72.6,71.0,94,82,69,30.08,29.96,8,3,0,0.00
2012-9-18,84.0,79.8,77.0,78.0,74.5,72.0,90,84,75,29.96,29.76,9,5,0,0.00
2012-9-19,84.0,75.2,69.0,74.0,70.0,64.0,93,84,68,30.08,29.85,6,2,0,0.00
2012-9-20,76.0,70.7,66.0,69.0,65.5,62.0,90,84,75,30.12,30.04,6,3,0,0.00
2012-9-21,79.0,73.6,66.0,69.0,65.4,63.0,91,76,60,30.09,30.03,7,3,0,0.00
2012-9-22,84.0,76.4,69.0,72.0,69.1,66.0,94,79,66,30.07,29.99,5,1,0,0.00
2012-9-23,80.0,74.9,68.0,72.0,67.3,-99.9,92,79,64,30.10,29.99,8,3,0,0.00
2012-9-24,77.0,69.9,63.0,66.0,59.9,55.0,89,72,49,30.18,30.08,9,3,0,0.00
2012-9-25,78.0,71.1,63.0,66.0,62.3,58.0,91,75,56,30.24,30.16,7,2,0,0.00
2012-9-26,81.0,74.0,66.0,71.0,67.3,63.0,92,80,67,30.22,30.16,8,4,0,0.00
2012-9-27,82.0,75.8,70.0,71.0,67.8,66.0,94,77,60,30.22,30.11,9,3,0,0.00
2012-9-28,86.0,76.6,69.0,72.0,69.6,67.0,94,80,57,30.13,30.02,6,1,0,0.00
2012-9-29,86.0,76.8,72.0,74.0,71.4,68.0,96,84,65,30.04,29.88,3,0,0,0.00
2012-9-30,77.0,74.1,71.0,74.0,70.0,68.0,92,87,81,29.91,29.85,4,1,0,0.00
2012-10-1,87.0,80.0,75.0,79.0,76.0,73.0,96,88,76,29.86,29.78,6,2,0,0.00
2012-10-2,88.0,81.3,77.0,79.0,76.9,74.0,95,87,75,30.01,29.78,6,2,0,0.00
2012-10-3,84.0,79.0,76.0,77.0,72.6,69.0,93,82,63,30.21,30.01,3,1,0,0.00
2012-10-4,84.0,76.3,71.0,74.0,71.7,69.0,95,86,73,30.24,30.16,2,0,0,0.00
2012-10-5,80.0,75.2,71.0,71.0,68.7,65.0,94,81,61,30.19,30.03,8,2,0,0.00
2012-10-6,83.0,76.5,70.0,72.0,69.8,65.0,94,81,55,30.05,29.92,5,1,0,0.00
2012-10-7,84.0,77.6,74.0,75.0,73.2,71.0,96,87,72,30.02,29.95,2,0,0,0.00
2012-10-8,78.0,64.0,55.0,74.0,61.2,54.0,96,91,84,30.10,30.01,8,5,0,0.00
2012-10-9,64.0,57.4,54.0,57.0,54.4,53.0,97,90,77,30.15,30.07,7,4,0,0.00
2012-10-10,76.0,63.7,55.0,63.0,57.9,53.0,95,82,58,30.17,30.03,2,1,0,0.00
2012-10-11,71.0,64.7,59.0,63.0,57.2,53.0,90,78,56,30.28,30.14,7,2,0,0.00
2012-10-12,74.0,66.6,59.0,64.0,58.2,55.0,89,76,57,30.27,30.17,4,1,0,0.00
2012-10-13,73.0,66.6,60.0,65.0,59.7,56.0,88,79,64,30.36,30.25,11,5,0,0.00
2012-10-14,78.0,69.5,61.0,68.0,63.3,58.0,94,82,61,30.31,30.07,8,3,0,0.00
2012-10-15,80.0,74.5,70.0,72.0,69.8,64.0,94,86,74,30.07,29.79,5,2,0,0.00
2012-10-16,71.0,64.4,58.0,62.0,53.0,47.0,82,67,51,29.98,29.85,9,3,0,0.00
2012-10-17,72.0,65.5,58.0,63.0,58.2,54.0,90,78,67,30.02,29.92,5,1,0,0.00
2012-10-18,80.0,72.7,66.0,72.0,68.0,63.0,95,85,74,29.93,29.82,7,1,0,0.00
2012-10-19,78.0,72.5,67.0,71.0,59.8,47.0,94,68,35,29.87,29.77,4,1,0,0.00
2012-10-20,75.0,68.1,61.0,62.0,53.0,47.0,80,60,38,29.96,29.83,4,1,0,0.00
2012-10-21,71.0,63.3,55.0,57.0,52.5,47.0,83,68,52,30.17,29.95,7,3,0,0.00
2012-10-22,71.0,63.1,54.0,56.0,51.8,46.0,85,68,43,30.25,30.16,6,2,0,0.00
2012-10-23,74.0,66.3,58.0,65.0,60.0,54.0,91,81,62,30.22,30.13,7,2,0,0.00
2012-10-24,78.0,70.1,64.0,68.0,65.4,63.0,96,86,65,30.19,30.10,8,2,0,0.00
2012-10-25,79.0,72.8,68.0,70.0,68.4,67.0,95,86,72,30.11,30.03,9,5,0,0.00
2012-10-26,77.0,71.3,68.0,69.0,65.8,64.0,95,83,69,30.03,29.78,12,7,0,0.00
2012-10-27,69.0,66.6,65.0,65.0,63.1,59.0,94,89,78,29.78,29.54,13,10,0,0.00
2012-10-28,71.0,65.6,63.0,59.0,56.3,54.0,79,72,59,29.63,29.56,8,5,0,0.00
2012-10-29,64.0,57.8,51.0,56.0,43.8,38.0,75,60,46,29.68,29.55,7,5,0,0.00
2012-10-30,59.0,52.3,48.0,40.0,37.1,32.0,68,57,43,29.78,29.58,7,5,0,0.00
2012-10-31,65.0,55.9,48.0,40.0,35.0,30.0,58,46,27,29.87,29.77,8,4,0,0.00
2012-11-1,65.0,57.2,51.0,42.0,37.0,31.0,65,48,28,29.97,29.84,6,3,0,0.00
2012-11-2,69.0,58.9,48.0,56.0,43.5,31.0,86,58,41,30.03,29.89,6,2,0,0.00
2012-11-3,64.0,59.0,50.0,57.0,47.7,36.0,87,67,38,30.14,29.96,7,2,0,0.00
2012-11-4,74.0,66.0,62.0,65.0,62.0,58.0,94,87,71,30.07,29.91,4,1,0,0.00
2012-11-5,63.0,57.0,51.0,60.0,51.0,45.0,97,81,52,30.07,29.93,8,3,0,0.00
2012-11-6,55.0,50.5,45.0,49.0,45.6,41.0,93,83,72,30.05,29.90,9,5,0,0.00
2012-11-7,55.0,47.3,41.0,44.0,41.0,37.0,90,79,62,30.01,29.88,8,3,0,0.00
2012-11-8,63.0,51.8,43.0,46.0,41.7,34.0,94,72,34,30.17,30.00,7,1,0,0.00
2012-11-9,63.0,54.0,45.0,51.0,41.9,33.0,90,65,37,30.33,30.17,5,1,0,0.00
2012-11-10,70.0,57.6,50.0,54.0,50.0,37.0,95,78,30,30.42,30.30,5,1,0,0.00
2012-11-11,72.0,62.7,54.0,64.0,58.6,51.0,96,87,74,30.45,30.37,7,3,0,0.00
2012-11-12,74.0,67.5,60.0,66.0,63.3,59.0,97,86,73,30.37,30.22,6,1,0,0.00
2012-11-13,75.0,63.9,53.0,66.0,60.6,52.0,95,89,74,30.29,30.16,9,3,0,0.00
2012-11-14,53.0,49.9,48.0,52.0,45.7,-99.9,95,87,82,30.39,30.27,8,6,0,0.00
2012-11-15,52.0,48.2,45.0,51.0,47.0,43.0,97,95,89,30.28,30.19,16,6,0,0.00
2012-11-16,54.0,50.4,46.0,51.0,47.7,45.0,96,90,78,30.32,30.23,8,4,0,0.00
2012-11-17,54.0,50.2,44.0,49.0,45.2,39.0,87,83,78,30.37,30.29,9,6,0,0.00
2012-11-18,54.0,51.9,49.0,52.0,50.0,47.0,96,93,81,30.32,30.16,13,10,0,0.00
2012-11-19,59.0,55.4,53.0,54.0,52.3,51.0,96,89,82,30.22,30.13,12,8,0,0.00
2012-11-20,60.0,53.1,48.0,54.0,50.1,46.0,95,90,77,30.17,30.06,8,3,0,0.00
2012-11-21,61.0,53.7,47.0,50.0,46.8,42.0,95,78,59,30.14,30.07,9,4,0,0.00
2012-11-22,62.0,52.0,44.0,43.0,38.1,31.0,83,61,32,30.22,30.13,11,5,0,0.00
2012-11-23,66.0,53.6,44.0,53.0,44.3,35.0,89,72,41,30.21,29.98,3,1,0,0.00
2012-11-24,61.0,54.4,45.0,52.0,42.1,37.0,88,64,42,30.13,29.96,5,1,0,0.00
2012-11-25,54.0,47.3,39.0,48.0,40.2,30.0,94,76,66,30.22,30.12,6,3,0,0.00
2012-11-26,65.0,52.6,46.0,50.0,44.8,31.0,94,77,32,30.29,30.17,2,0,0,0.00
2012-11-27,63.0,54.8,51.0,54.0,50.6,46.0,95,86,54,30.24,30.13,4,0,0,0.00
2012-11-28,58.0,51.4,44.0,52.0,46.7,40.0,96,85,62,30.42,30.18,8,2,0,0.00
2012-11-29,59.0,49.1,41.0,48.0,42.7,37.0,90,79,60,30.48,30.40,7,3,0,0.00
2012-11-30,64.0,54.3,46.0,55.0,49.2,43.0,95,83,62,30.43,30.33,7,2,0,0.00
2012-12-1,65.0,58.5,52.0,58.0,54.5,50.0,95,87,71,30.41,30.32,5,2,0,0.00
2012-12-2,70.0,61.1,55.0,62.0,57.9,53.0,95,89,77,30.41,30.31,6,2,0,0.00
2012-12-3,73.0,61.3,55.0,63.0,58.8,54.0,98,92,70,30.36,30.29,2,0,0,0.00
2012-12-4,73.0,63.8,61.0,64.0,60.6,58.0,96,89,72,30.37,30.27,3,0,0,0.00
2012-12-5,72.0,62.0,56.0,62.0,58.1,55.0,97,87,66,30.27,30.13,2,0,0,0.00
2012-12-6,60.0,56.3,53.0,57.0,50.9,-99.9,94,85,80,30.21,30.13,10,6,0,0.00
2012-12-7,62.0,55.6,52.0,57.0,52.6,48.0,95,90,81,30.14,30.01,7,3,0,0.00
2012-12-8,67.0,57.9,52.0,59.0,55.3,51.0,98,91,72,30.13,30.03,2,0,0,0.00
2012-12-9,73.0,64.3,57.0,67.0,61.9,56.0,97,92,80,30.17,30.01,6,1,0,0.00
2012-12-10,67.0,64.0,62.0,66.0,62.4,61.0,98,95,87,30.01,29.82,6,1,0,0.00
2012-12-11,71.0,63.8,59.0,65.0,61.6,56.0,97,93,82,30.09,29.82,5,1,0,0.00
2012-12-12,59.0,53.3,45.0,57.0,51.6,44.0,96,94,91,30.21,30.07,9,4,0,0.00
2012-12-13,48.0,44.4,42.0,45.0,42.3,40.0,95,92,86,30.34,30.17,11,7,0,0.00
2012-12-14,58.0,49.0,41.0,50.0,44.3,38.0,93,84,69,30.40,30.24,8,3,0,0.00
2012-12-15,58.0,53.6,50.0,55.0,49.8,44.0,99,87,77,30.26,30.13,6,2,0,0.00
2012-12-16,69.0,60.2,53.0,65.0,57.3,51.0,98,91,68,30.14,29.94,4,0,0,0.00
2012-12-17,67.0,62.7,59.0,51.0,36.3,18.0,67,39,19,29.93,29.73,10,2,0,0.00
2012-12-18,66.0,60.5,53.0,52.0,31.3,-2.0,62,38,8,30.03,29.78,8,4,0,0.00
2012-12-19,68.0,56.3,50.0,53.0,37.4,9.0,65,51,17,30.16,30.03,4,1,0,0.00
2012-12-20,69.0,59.3,48.0,65.0,15.4,-41.0,100,29,1,30.16,29.69,10,2,0,0.00
2012-12-21,59.0,48.6,45.0,43.0,32.7,25.0,63,54,33,30.00,29.74,11,8,0,0.00
2012-12-22,57.0,46.1,38.0,33.0,26.8,22.0,61,47,29,30.20,29.99,8,3,0,0.00
2012-12-23,59.0,48.8,40.0,42.0,33.2,26.0,66,55,39,30.24,30.12,3,1,0,0.00
2012-12-24,62.0,55.5,51.0,49.0,35.1,-43.0,65,53,1,30.15,29.96,6,1,0,0.00
2012-12-25,62.0,55.6,53.0,62.0,55.2,7.0,100,99,11,30.11,29.96,7,2,0,0.00
2012-12-26,66.0,57.8,45.0,65.0,51.1,26.0,100,82,28,29.96,29.56,12,6,0,0.00
2012-12-27,56.0,46.5,39.0,41.0,20.8,-12.0,57,38,8,30.09,29.83,10,3,0,0.00
2012-12-28,55.0,47.3,38.0,55.0,45.2,-38.0,100,97,2,30.16,29.94,6,2,0,0.00
2012-12-29,64.0,53.3,45.0,64.0,40.2,-8.0,100,72,8,30.07,29.69,9,5,0,0.00
2012-12-30,51.0,44.3,37.0,30.0,20.2,-19.0,57,41,7,30.45,30.07,7,3,0,0.00
2012-12-31,59.0,48.2,35.0,55.0,30.8,-54.0,100,60,1,30.45,30.22,3,0,0,0.00
2013-1-1,63.0,54.9,50.0,63.0,54.9,50.0,100,100,100,30.24,29.98,3,1,0,0.00